Flight Track Log - Related Links

Times and Time Zones

All times are in EDT time to prevent confusion due to time zone crossing. See the WBR2634 flight status page for this flight to view local times or setup timezone preferences in your user account.

Time Position Orientation Groundspeed Altitude Reporting Facility
EDT Latitude Longitude Course Direction KTS MPH feet Rate Location/Type
Wed 05:46:40 PM 40.7503 -91.0867 65° Northeast 153 176 1,800  Level Chicago Center
Wed 05:47:42 PM 40.7667 -91.0439 63° Northeast 132 152 2,300 581 Climbing Chicago Center
Wed 05:48:44 PM 40.7850 -91.0033 59° Northeast 131 151 3,000 726 Climbing Chicago Center
Wed 05:49:00 PM 40.8558 -90.8051 57° Northeast  Level FlightAware Approximate
Wed 05:49:46 PM 40.8008 -90.9611 64° Northeast 129 148 3,800  Level Chicago Center
Wed 05:50:00 PM 40.8883 -90.7636 72° East  Level FlightAware Approximate
Wed 05:50:48 PM 40.8144 -90.9214 66° East 125 144 4,500  Level Chicago Center
Wed 05:51:00 PM 40.9020 -90.7111 65° Northeast  Level FlightAware Approximate
Wed 05:51:50 PM 40.8300 -90.8728 67° East 120 138 5,500  Level Chicago Center
Wed 05:52:00 PM 40.9199 -90.6609 65° Northeast  Level FlightAware Approximate
Wed 05:52:52 PM 40.8406 -90.8281 73° East 125 144 6,200  Level Chicago Center
Wed 05:53:54 PM 40.8475 -90.7814 79° East 129 148 6,900 726 Climbing Chicago Center
Wed 05:54:56 PM 40.8633 -90.7431 61° Northeast 122 140 7,700 672 Climbing Chicago Center
Wed 05:55:59 PM 40.8764 -90.6972 69° East 131 151 8,300 480 Climbing Chicago Center
Wed 05:57:01 PM 40.8928 -90.6517 65° Northeast 138 159 8,700 339 Climbing Chicago Center
Wed 05:58:03 PM 40.9144 -90.5886 66° East 154 177 9,000 145 Climbing Chicago Center
Wed 05:59:05 PM 40.9381 -90.5292 62° Northeast 174 200 9,000  Level Chicago Center
Wed 06:00:07 PM 40.9594 -90.4658 66° East 185 213 9,000  Level Chicago Center
Wed 06:01:09 PM 40.9808 -90.4019 66° East 191 220 9,000  Level Chicago Center
Wed 06:02:11 PM 41.0042 -90.3378 64° Northeast 191 220 9,000  Level Chicago Center
Wed 06:03:13 PM 41.0281 -90.2731 64° Northeast 194 223 9,000  Level Chicago Center
Wed 06:04:15 PM 41.0558 -90.1944 65° Northeast 195 224 9,000  Level Chicago Center
Wed 06:05:18 PM 41.0792 -90.1311 64° Northeast 192 221 9,000  Level Chicago Center
Wed 06:06:20 PM 41.1028 -90.0675 64° Northeast 192 221 9,000  Level Chicago Center
Wed 06:07:22 PM 41.1253 -90.0047 65° Northeast 188 216 9,000  Level Chicago Center
Wed 06:08:24 PM 41.1469 -89.9406 66° East 189 217 9,000  Level Chicago Center
Wed 06:09:26 PM 41.1708 -89.8758 64° Northeast 194 223 9,000  Level Chicago Center
Wed 06:10:28 PM 41.1931 -89.8128 65° Northeast 190 219 9,000  Level Chicago Center
Wed 06:11:30 PM 41.2203 -89.7372 64° Northeast 189 217 9,000  Level Chicago Center
Wed 06:12:32 PM 41.2433 -89.6747 64° Northeast 187 215 9,000  Level Chicago Center
Wed 06:13:34 PM 41.2642 -89.6114 66° East 187 215 9,000  Level Chicago Center
Wed 06:14:36 PM 41.2864 -89.5497 64° Northeast 186 214 9,000  Level Chicago Center
Wed 06:15:39 PM 41.3083 -89.4886 64° Northeast 183 211 9,000  Level Chicago Center
Wed 06:16:41 PM 41.3306 -89.4267 64° Northeast 184 212 9,000  Level Chicago Center
Wed 06:17:43 PM 41.3558 -89.3511 66° East 185 213 9,000  Level Chicago Center
Wed 06:18:45 PM 41.3786 -89.2881 64° Northeast 188 216 9,000  Level Chicago Center
Wed 06:19:47 PM 41.3992 -89.2247 67° East 186 214 9,000  Level Chicago Center
Wed 06:20:49 PM 41.4219 -89.1597 65° Northeast 185 213 9,000 -48 Level Chicago Center
Wed 06:21:51 PM 41.4431 -89.0989 65° Northeast 184 212 8,900 -290 Descending Chicago Center
Wed 06:22:53 PM 41.4658 -89.0325 65° Northeast 197 227 8,400 -387 Descending Chicago Center
Wed 06:23:55 PM 41.4894 -88.9669 64° Northeast 199 229 8,100 -192 Descending Chicago Center
Wed 06:24:58 PM 41.5167 -88.8903 65° Northeast 192 221 8,000 -48 Descending Chicago Center
Wed 06:26:00 PM 41.5369 -88.8300 66° East 181 208 8,000  Level Chicago Center
Wed 06:27:02 PM 41.5556 -88.7683 68° East 180 207 8,000  Level Chicago Center
Wed 06:28:04 PM 41.5783 -88.7069 64° Northeast 183 211 8,000  Level Chicago Center
Wed 06:29:06 PM 41.5989 -88.6472 65° Northeast 181 208 8,000  Level Chicago Center
Wed 06:30:08 PM 41.6256 -88.5756 64° Northeast 180 207 8,000  Level Chicago Center
Wed 06:31:10 PM 41.6567 -88.5242 51° Northeast 178 205 8,000  Level Chicago Center
Wed 06:32:12 PM 41.6803 -88.4658 62° Northeast 178 205 8,000  Level Chicago Center
Wed 06:33:14 PM 41.7036 -88.4089 61° Northeast 175 201 8,000  Level Chicago Center
Wed 06:34:17 PM 41.7278 -88.3539 59° Northeast 172 198 8,000 -48 Level Chicago Center
Wed 06:35:19 PM 41.7558 -88.2869 61° Northeast 172 198 7,900 -435 Descending Chicago Center
Wed 06:36:21 PM 41.7817 -88.2272 60° Northeast 183 211 7,100 -435 Descending Chicago Center
Wed 06:37:23 PM 41.8081 -88.1642 61° Northeast 192 221 7,000 -48 Descending Chicago Center
Wed 06:38:25 PM 41.8319 -88.1069 61° Northeast 180 207 7,000  Level Chicago Center
Wed 06:39:27 PM 41.8561 -88.0517 60° Northeast 174 200 7,000  Level Chicago Center
Wed 06:40:23 PM 41.8833 -87.9833 62° Northeast 170 196 7,000  Level Chicago TRACON
Wed 06:41:23 PM 41.8833 -87.9333 90° East 171 197 7,000 -50 Level Chicago TRACON
Wed 06:42:23 PM 41.8833 -87.8667 90° East 173 199 6,900 -150 Descending Chicago TRACON
Wed 06:43:23 PM 41.8833 -87.8000 90° East 172 198 6,700 -500 Descending Chicago TRACON
Wed 06:44:23 PM 41.8833 -87.7333 90° East 198 228 5,900 -1,091 Descending Chicago TRACON
Wed 06:45:24 PM 41.9167 -87.6667 56° Northeast 222 255 4,500 -942 Descending Chicago TRACON
Wed 06:46:24 PM 41.9667 -87.7000 334° Northwest 178 205 4,000 -900 Descending Chicago TRACON
Wed 06:47:24 PM 41.9667 -87.7500 270° West 153 176 2,700 -1,000 Descending Chicago TRACON
Wed 06:48:24 PM 41.9667 -87.8000 270° West 149 171 2,000 -662 Descending Chicago TRACON
Wed 06:49:49 PM 41.9692 -87.8719 270° West 149 171 1,100 -635 Descending Chicago Center
Wed 06:50:00 PM 41.9667 -87.8765 270° West  Level FlightAware Approximate

Login

Don't have an account? Register now (free) for customized features, flight alerts, and more!